sensor_id;sensor_type;location;lat;lon;timestamp;P1;durP1;ratioP1;P2;durP2;ratioP2
11837;SDS011;5978;51.020;6.764;2023-11-19T00:02:14;1.30;;;1.20;;
11837;SDS011;5978;51.020;6.764;2023-11-19T00:04:40;1.20;;;1.10;;
11837;SDS011;5978;51.020;6.764;2023-11-19T00:07:06;1.30;;;1.20;;
11837;SDS011;5978;51.020;6.764;2023-11-19T00:09:33;1.73;;;1.10;;
11837;SDS011;5978;51.020;6.764;2023-11-19T00:12:01;3.73;;;1.60;;
11837;SDS011;5978;51.020;6.764;2023-11-19T00:14:27;1.93;;;1.20;;
11837;SDS011;5978;51.020;6.764;2023-11-19T00:16:54;1.47;;;1.37;;
11837;SDS011;5978;51.020;6.764;2023-11-19T00:19:19;4.77;;;1.37;;
11837;SDS011;5978;51.020;6.764;2023-11-19T00:21:45;1.27;;;1.17;;
11837;SDS011;5978;51.020;6.764;2023-11-19T00:24:11;2.10;;;1.37;;
11837;SDS011;5978;51.020;6.764;2023-11-19T00:26:37;2.50;;;1.50;;
11837;SDS011;5978;51.020;6.764;2023-11-19T00:29:04;1.67;;;1.40;;
11837;SDS011;5978;51.020;6.764;2023-11-19T00:31:30;1.50;;;1.07;;
11837;SDS011;5978;51.020;6.764;2023-11-19T00:33:56;1.10;;;0.90;;
11837;SDS011;5978;51.020;6.764;2023-11-19T00:36:22;1.47;;;1.10;;
11837;SDS011;5978;51.020;6.764;2023-11-19T00:38:49;0.93;;;0.90;;
11837;SDS011;5978;51.020;6.764;2023-11-19T00:41:15;1.30;;;1.00;;
11837;SDS011;5978;51.020;6.764;2023-11-19T00:43:42;1.40;;;1.10;;
11837;SDS011;5978;51.020;6.764;2023-11-19T00:46:07;1.07;;;0.90;;
11837;SDS011;5978;51.020;6.764;2023-11-19T00:48:35;1.97;;;0.93;;
11837;SDS011;5978;51.020;6.764;2023-11-19T00:51:01;1.53;;;1.10;;
11837;SDS011;5978;51.020;6.764;2023-11-19T00:53:27;2.97;;;1.00;;
11837;SDS011;5978;51.020;6.764;2023-11-19T00:55:53;1.60;;;1.10;;
11837;SDS011;5978;51.020;6.764;2023-11-19T00:58:19;0.93;;;0.80;;
11837;SDS011;5978;51.020;6.764;2023-11-19T01:00:44;1.73;;;0.93;;
11837;SDS011;5978;51.020;6.764;2023-11-19T01:03:10;1.30;;;0.80;;
11837;SDS011;5978;51.020;6.764;2023-11-19T01:05:36;2.50;;;0.80;;
11837;SDS011;5978;51.020;6.764;2023-11-19T01:08:02;0.80;;;0.80;;
11837;SDS011;5978;51.020;6.764;2023-11-19T01:10:29;0.87;;;0.80;;
11837;SDS011;5978;51.020;6.764;2023-11-19T01:12:55;0.87;;;0.77;;
11837;SDS011;5978;51.020;6.764;2023-11-19T01:15:21;1.53;;;0.90;;
11837;SDS011;5978;51.020;6.764;2023-11-19T01:17:47;4.50;;;1.10;;
11837;SDS011;5978;51.020;6.764;2023-11-19T01:20:13;4.07;;;0.90;;
11837;SDS011;5978;51.020;6.764;2023-11-19T01:22:39;1.30;;;1.03;;
11837;SDS011;5978;51.020;6.764;2023-11-19T01:25:05;1.27;;;1.17;;
11837;SDS011;5978;51.020;6.764;2023-11-19T01:27:31;1.10;;;1.00;;
11837;SDS011;5978;51.020;6.764;2023-11-19T01:30:00;1.30;;;1.20;;
11837;SDS011;5978;51.020;6.764;2023-11-19T01:32:28;2.47;;;1.27;;
11837;SDS011;5978;51.020;6.764;2023-11-19T01:34:53;1.43;;;1.33;;
11837;SDS011;5978;51.020;6.764;2023-11-19T01:37:19;2.17;;;1.50;;
11837;SDS011;5978;51.020;6.764;2023-11-19T01:39:45;3.43;;;1.47;;
11837;SDS011;5978;51.020;6.764;2023-11-19T01:42:11;1.77;;;1.63;;
11837;SDS011;5978;51.020;6.764;2023-11-19T01:44:40;3.37;;;1.60;;
11837;SDS011;5978;51.020;6.764;2023-11-19T01:47:06;4.70;;;2.50;;
11837;SDS011;5978;51.020;6.764;2023-11-19T01:49:33;3.53;;;2.27;;
11837;SDS011;5978;51.020;6.764;2023-11-19T01:51:59;8.57;;;2.73;;
11837;SDS011;5978;51.020;6.764;2023-11-19T01:54:25;4.90;;;2.43;;
11837;SDS011;5978;51.020;6.764;2023-11-19T01:56:52;3.53;;;2.60;;
11837;SDS011;5978;51.020;6.764;2023-11-19T01:59:21;12.63;;;2.87;;
11837;SDS011;5978;51.020;6.764;2023-11-19T02:01:51;8.83;;;2.53;;
11837;SDS011;5978;51.020;6.764;2023-11-19T02:04:18;5.77;;;2.70;;
11837;SDS011;5978;51.020;6.764;2023-11-19T02:06:44;6.77;;;3.10;;
11837;SDS011;5978;51.020;6.764;2023-11-19T02:09:13;7.90;;;3.10;;
11837;SDS011;5978;51.020;6.764;2023-11-19T02:11:39;6.50;;;2.70;;
11837;SDS011;5978;51.020;6.764;2023-11-19T02:14:05;6.63;;;2.57;;
11837;SDS011;5978;51.020;6.764;2023-11-19T02:16:31;4.90;;;2.40;;
11837;SDS011;5978;51.020;6.764;2023-11-19T02:18:57;10.10;;;2.83;;
11837;SDS011;5978;51.020;6.764;2023-11-19T02:21:23;7.70;;;3.30;;
11837;SDS011;5978;51.020;6.764;2023-11-19T02:23:49;14.97;;;4.40;;
11837;SDS011;5978;51.020;6.764;2023-11-19T02:26:33;18.90;;;4.53;;
11837;SDS011;5978;51.020;6.764;2023-11-19T02:29:17;8.63;;;4.23;;
11837;SDS011;5978;51.020;6.764;2023-11-19T02:31:42;10.50;;;4.63;;
11837;SDS011;5978;51.020;6.764;2023-11-19T02:34:10;7.40;;;3.27;;
11837;SDS011;5978;51.020;6.764;2023-11-19T02:36:37;6.00;;;3.43;;
11837;SDS011;5978;51.020;6.764;2023-11-19T02:39:03;8.17;;;3.33;;
11837;SDS011;5978;51.020;6.764;2023-11-19T02:41:29;8.47;;;3.30;;
11837;SDS011;5978;51.020;6.764;2023-11-19T02:43:55;8.90;;;3.93;;
11837;SDS011;5978;51.020;6.764;2023-11-19T02:46:20;8.73;;;3.70;;
11837;SDS011;5978;51.020;6.764;2023-11-19T02:48:46;17.33;;;5.17;;
11837;SDS011;5978;51.020;6.764;2023-11-19T02:51:12;11.97;;;4.53;;
11837;SDS011;5978;51.020;6.764;2023-11-19T02:53:38;14.10;;;4.07;;
11837;SDS011;5978;51.020;6.764;2023-11-19T02:56:04;13.77;;;4.80;;
11837;SDS011;5978;51.020;6.764;2023-11-19T02:58:53;11.77;;;4.07;;
11837;SDS011;5978;51.020;6.764;2023-11-19T03:01:22;15.30;;;5.20;;
11837;SDS011;5978;51.020;6.764;2023-11-19T03:03:54;8.23;;;3.53;;
11837;SDS011;5978;51.020;6.764;2023-11-19T03:06:23;8.83;;;3.70;;
11837;SDS011;5978;51.020;6.764;2023-11-19T03:08:49;6.73;;;3.20;;
11837;SDS011;5978;51.020;6.764;2023-11-19T03:11:15;9.80;;;3.10;;
11837;SDS011;5978;51.020;6.764;2023-11-19T03:13:41;18.40;;;3.23;;
11837;SDS011;5978;51.020;6.764;2023-11-19T03:16:07;12.93;;;3.00;;
11837;SDS011;5978;51.020;6.764;2023-11-19T03:18:33;7.80;;;4.13;;
11837;SDS011;5978;51.020;6.764;2023-11-19T03:20:58;7.47;;;2.90;;
11837;SDS011;5978;51.020;6.764;2023-11-19T03:23:24;6.60;;;2.53;;
11837;SDS011;5978;51.020;6.764;2023-11-19T03:25:52;6.27;;;3.00;;
11837;SDS011;5978;51.020;6.764;2023-11-19T03:28:18;10.67;;;3.90;;
11837;SDS011;5978;51.020;6.764;2023-11-19T03:30:44;7.67;;;3.17;;
11837;SDS011;5978;51.020;6.764;2023-11-19T03:33:10;8.63;;;3.37;;
11837;SDS011;5978;51.020;6.764;2023-11-19T03:35:36;4.90;;;3.17;;
11837;SDS011;5978;51.020;6.764;2023-11-19T03:38:02;8.10;;;3.73;;
11837;SDS011;5978;51.020;6.764;2023-11-19T03:40:28;13.37;;;3.43;;
11837;SDS011;5978;51.020;6.764;2023-11-19T03:42:55;9.90;;;3.60;;
11837;SDS011;5978;51.020;6.764;2023-11-19T03:45:22;4.90;;;2.80;;
11837;SDS011;5978;51.020;6.764;2023-11-19T03:47:48;10.43;;;3.70;;
11837;SDS011;5978;51.020;6.764;2023-11-19T03:50:15;14.13;;;4.30;;
11837;SDS011;5978;51.020;6.764;2023-11-19T03:52:40;7.60;;;3.67;;
11837;SDS011;5978;51.020;6.764;2023-11-19T03:55:07;6.07;;;3.13;;
11837;SDS011;5978;51.020;6.764;2023-11-19T03:57:33;24.33;;;4.23;;
11837;SDS011;5978;51.020;6.764;2023-11-19T03:59:59;7.57;;;3.90;;
11837;SDS011;5978;51.020;6.764;2023-11-19T04:02:28;8.13;;;3.50;;
11837;SDS011;5978;51.020;6.764;2023-11-19T04:04:54;12.03;;;3.60;;
11837;SDS011;5978;51.020;6.764;2023-11-19T04:07:20;10.67;;;3.10;;
11837;SDS011;5978;51.020;6.764;2023-11-19T04:09:46;9.10;;;3.20;;
11837;SDS011;5978;51.020;6.764;2023-11-19T04:12:12;6.80;;;3.43;;
11837;SDS011;5978;51.020;6.764;2023-11-19T04:14:37;8.10;;;3.83;;
11837;SDS011;5978;51.020;6.764;2023-11-19T04:17:03;11.60;;;3.90;;
11837;SDS011;5978;51.020;6.764;2023-11-19T04:19:29;11.37;;;3.63;;
11837;SDS011;5978;51.020;6.764;2023-11-19T04:21:54;7.50;;;3.53;;
11837;SDS011;5978;51.020;6.764;2023-11-19T04:24:20;12.00;;;4.10;;
11837;SDS011;5978;51.020;6.764;2023-11-19T04:26:46;16.13;;;3.53;;
11837;SDS011;5978;51.020;6.764;2023-11-19T04:29:12;10.83;;;3.83;;
11837;SDS011;5978;51.020;6.764;2023-11-19T04:31:40;10.77;;;3.40;;
11837;SDS011;5978;51.020;6.764;2023-11-19T04:34:06;10.83;;;5.53;;
11837;SDS011;5978;51.020;6.764;2023-11-19T04:36:32;20.13;;;3.90;;
11837;SDS011;5978;51.020;6.764;2023-11-19T04:38:59;9.37;;;3.30;;
11837;SDS011;5978;51.020;6.764;2023-11-19T04:41:25;9.10;;;4.90;;
11837;SDS011;5978;51.020;6.764;2023-11-19T04:43:52;18.23;;;4.77;;
11837;SDS011;5978;51.020;6.764;2023-11-19T04:46:18;13.17;;;3.70;;
11837;SDS011;5978;51.020;6.764;2023-11-19T04:48:44;11.23;;;3.80;;
11837;SDS011;5978;51.020;6.764;2023-11-19T04:51:10;14.30;;;4.33;;
11837;SDS011;5978;51.020;6.764;2023-11-19T04:53:36;24.17;;;4.80;;
11837;SDS011;5978;51.020;6.764;2023-11-19T04:56:07;15.60;;;4.07;;
11837;SDS011;5978;51.020;6.764;2023-11-19T04:58:33;15.90;;;3.93;;
11837;SDS011;5978;51.020;6.764;2023-11-19T05:01:00;18.90;;;3.90;;
11837;SDS011;5978;51.020;6.764;2023-11-19T05:03:26;8.93;;;3.50;;
11837;SDS011;5978;51.020;6.764;2023-11-19T05:05:52;12.40;;;4.10;;
11837;SDS011;5978;51.020;6.764;2023-11-19T05:08:18;13.50;;;4.40;;
11837;SDS011;5978;51.020;6.764;2023-11-19T05:10:44;11.90;;;3.97;;
11837;SDS011;5978;51.020;6.764;2023-11-19T05:13:10;9.47;;;3.50;;
11837;SDS011;5978;51.020;6.764;2023-11-19T05:15:35;11.37;;;4.00;;
11837;SDS011;5978;51.020;6.764;2023-11-19T05:18:01;10.00;;;3.20;;
11837;SDS011;5978;51.020;6.764;2023-11-19T05:20:27;17.47;;;4.23;;
11837;SDS011;5978;51.020;6.764;2023-11-19T05:22:53;15.30;;;4.07;;
11837;SDS011;5978;51.020;6.764;2023-11-19T05:25:18;14.67;;;3.87;;
11837;SDS011;5978;51.020;6.764;2023-11-19T05:27:45;11.30;;;3.63;;
11837;SDS011;5978;51.020;6.764;2023-11-19T05:30:11;11.63;;;3.63;;
11837;SDS011;5978;51.020;6.764;2023-11-19T05:32:36;13.50;;;3.83;;
11837;SDS011;5978;51.020;6.764;2023-11-19T05:35:02;8.90;;;3.00;;
11837;SDS011;5978;51.020;6.764;2023-11-19T05:37:28;10.47;;;3.50;;
11837;SDS011;5978;51.020;6.764;2023-11-19T05:39:54;13.73;;;4.37;;
11837;SDS011;5978;51.020;6.764;2023-11-19T05:42:19;12.33;;;3.17;;
11837;SDS011;5978;51.020;6.764;2023-11-19T05:44:45;18.53;;;4.17;;
11837;SDS011;5978;51.020;6.764;2023-11-19T05:47:11;17.23;;;4.63;;
11837;SDS011;5978;51.020;6.764;2023-11-19T05:49:37;17.60;;;4.17;;
11837;SDS011;5978;51.020;6.764;2023-11-19T05:52:03;12.73;;;3.70;;
11837;SDS011;5978;51.020;6.764;2023-11-19T05:54:32;9.87;;;3.43;;
11837;SDS011;5978;51.020;6.764;2023-11-19T05:57:02;16.53;;;4.30;;
11837;SDS011;5978;51.020;6.764;2023-11-19T05:59:29;13.43;;;3.83;;
11837;SDS011;5978;51.020;6.764;2023-11-19T06:01:57;14.77;;;3.50;;
11837;SDS011;5978;51.020;6.764;2023-11-19T06:04:22;13.50;;;4.10;;
11837;SDS011;5978;51.020;6.764;2023-11-19T06:06:48;12.37;;;3.23;;
11837;SDS011;5978;51.020;6.764;2023-11-19T06:09:14;12.03;;;3.93;;
11837;SDS011;5978;51.020;6.764;2023-11-19T06:11:40;16.77;;;5.10;;
11837;SDS011;5978;51.020;6.764;2023-11-19T06:14:06;17.17;;;4.10;;
11837;SDS011;5978;51.020;6.764;2023-11-19T06:16:32;26.10;;;4.70;;
11837;SDS011;5978;51.020;6.764;2023-11-19T06:18:58;15.60;;;4.27;;
11837;SDS011;5978;51.020;6.764;2023-11-19T06:21:24;14.50;;;4.00;;
11837;SDS011;5978;51.020;6.764;2023-11-19T06:23:50;21.80;;;5.30;;
11837;SDS011;5978;51.020;6.764;2023-11-19T06:26:17;18.17;;;3.63;;
11837;SDS011;5978;51.020;6.764;2023-11-19T06:28:43;11.60;;;3.90;;
11837;SDS011;5978;51.020;6.764;2023-11-19T06:31:09;18.07;;;4.03;;
11837;SDS011;5978;51.020;6.764;2023-11-19T06:33:35;16.90;;;5.13;;
11837;SDS011;5978;51.020;6.764;2023-11-19T06:36:01;13.60;;;4.20;;
11837;SDS011;5978;51.020;6.764;2023-11-19T06:38:26;20.33;;;5.33;;
11837;SDS011;5978;51.020;6.764;2023-11-19T06:40:52;14.80;;;4.10;;
11837;SDS011;5978;51.020;6.764;2023-11-19T06:43:17;13.03;;;4.77;;
11837;SDS011;5978;51.020;6.764;2023-11-19T06:45:43;18.20;;;5.10;;
11837;SDS011;5978;51.020;6.764;2023-11-19T06:48:09;15.70;;;4.67;;
11837;SDS011;5978;51.020;6.764;2023-11-19T06:50:35;12.27;;;3.83;;
11837;SDS011;5978;51.020;6.764;2023-11-19T06:53:01;17.70;;;5.77;;
11837;SDS011;5978;51.020;6.764;2023-11-19T06:55:26;22.30;;;4.33;;
11837;SDS011;5978;51.020;6.764;2023-11-19T06:57:52;21.43;;;5.00;;
11837;SDS011;5978;51.020;6.764;2023-11-19T07:00:18;17.80;;;4.13;;
11837;SDS011;5978;51.020;6.764;2023-11-19T07:02:44;22.13;;;5.63;;
11837;SDS011;5978;51.020;6.764;2023-11-19T07:05:10;21.33;;;6.93;;
11837;SDS011;5978;51.020;6.764;2023-11-19T07:07:38;23.77;;;4.57;;
11837;SDS011;5978;51.020;6.764;2023-11-19T07:10:05;15.43;;;4.00;;
11837;SDS011;5978;51.020;6.764;2023-11-19T07:12:34;16.13;;;3.77;;
11837;SDS011;5978;51.020;6.764;2023-11-19T07:15:00;24.33;;;4.23;;
11837;SDS011;5978;51.020;6.764;2023-11-19T07:17:28;23.87;;;5.20;;
11837;SDS011;5978;51.020;6.764;2023-11-19T07:19:54;16.53;;;4.40;;
11837;SDS011;5978;51.020;6.764;2023-11-19T07:22:20;16.83;;;4.13;;
11837;SDS011;5978;51.020;6.764;2023-11-19T07:24:45;19.50;;;4.27;;
11837;SDS011;5978;51.020;6.764;2023-11-19T07:27:11;9.27;;;4.17;;
11837;SDS011;5978;51.020;6.764;2023-11-19T07:29:37;15.87;;;4.37;;
11837;SDS011;5978;51.020;6.764;2023-11-19T07:32:03;19.13;;;6.13;;
11837;SDS011;5978;51.020;6.764;2023-11-19T07:34:30;18.60;;;6.63;;
11837;SDS011;5978;51.020;6.764;2023-11-19T07:36:55;18.90;;;4.20;;
11837;SDS011;5978;51.020;6.764;2023-11-19T07:39:24;17.67;;;4.93;;
11837;SDS011;5978;51.020;6.764;2023-11-19T07:41:50;15.43;;;4.50;;
11837;SDS011;5978;51.020;6.764;2023-11-19T07:44:16;12.37;;;4.40;;
11837;SDS011;5978;51.020;6.764;2023-11-19T07:46:41;16.17;;;3.50;;
11837;SDS011;5978;51.020;6.764;2023-11-19T07:49:07;20.73;;;5.30;;
11837;SDS011;5978;51.020;6.764;2023-11-19T07:51:34;16.50;;;4.10;;
11837;SDS011;5978;51.020;6.764;2023-11-19T07:54:00;16.37;;;5.43;;
11837;SDS011;5978;51.020;6.764;2023-11-19T07:56:26;14.37;;;4.63;;
11837;SDS011;5978;51.020;6.764;2023-11-19T07:58:52;18.60;;;4.73;;
11837;SDS011;5978;51.020;6.764;2023-11-19T08:01:17;29.63;;;5.57;;
11837;SDS011;5978;51.020;6.764;2023-11-19T08:03:43;15.57;;;4.93;;
11837;SDS011;5978;51.020;6.764;2023-11-19T08:06:09;19.57;;;4.90;;
11837;SDS011;5978;51.020;6.764;2023-11-19T08:08:34;17.40;;;5.80;;
11837;SDS011;5978;51.020;6.764;2023-11-19T08:11:00;27.20;;;4.93;;
11837;SDS011;5978;51.020;6.764;2023-11-19T08:13:26;20.27;;;6.13;;
11837;SDS011;5978;51.020;6.764;2023-11-19T08:15:52;17.90;;;4.83;;
11837;SDS011;5978;51.020;6.764;2023-11-19T08:18:21;17.97;;;4.93;;
11837;SDS011;5978;51.020;6.764;2023-11-19T08:20:47;28.27;;;6.37;;
11837;SDS011;5978;51.020;6.764;2023-11-19T08:23:17;16.70;;;5.10;;
11837;SDS011;5978;51.020;6.764;2023-11-19T08:25:43;19.77;;;5.03;;
11837;SDS011;5978;51.020;6.764;2023-11-19T08:28:09;15.20;;;4.63;;
11837;SDS011;5978;51.020;6.764;2023-11-19T08:30:35;18.00;;;5.10;;
11837;SDS011;5978;51.020;6.764;2023-11-19T08:33:00;23.50;;;5.97;;
11837;SDS011;5978;51.020;6.764;2023-11-19T08:35:28;19.73;;;7.30;;
11837;SDS011;5978;51.020;6.764;2023-11-19T08:37:54;12.23;;;3.93;;
11837;SDS011;5978;51.020;6.764;2023-11-19T08:40:19;17.60;;;5.13;;
11837;SDS011;5978;51.020;6.764;2023-11-19T08:42:45;21.87;;;4.77;;
11837;SDS011;5978;51.020;6.764;2023-11-19T08:45:11;24.43;;;6.37;;
11837;SDS011;5978;51.020;6.764;2023-11-19T08:47:37;17.43;;;4.70;;
11837;SDS011;5978;51.020;6.764;2023-11-19T08:50:03;18.20;;;4.87;;
11837;SDS011;5978;51.020;6.764;2023-11-19T08:52:29;14.83;;;4.50;;
11837;SDS011;5978;51.020;6.764;2023-11-19T08:54:55;16.13;;;5.50;;
11837;SDS011;5978;51.020;6.764;2023-11-19T08:57:21;13.53;;;4.50;;
11837;SDS011;5978;51.020;6.764;2023-11-19T08:59:47;14.47;;;5.00;;
11837;SDS011;5978;51.020;6.764;2023-11-19T09:02:13;20.10;;;4.90;;
11837;SDS011;5978;51.020;6.764;2023-11-19T09:04:38;21.63;;;5.53;;
11837;SDS011;5978;51.020;6.764;2023-11-19T09:07:04;23.20;;;4.60;;
11837;SDS011;5978;51.020;6.764;2023-11-19T09:09:30;18.53;;;5.73;;
11837;SDS011;5978;51.020;6.764;2023-11-19T09:12:01;26.03;;;5.40;;
11837;SDS011;5978;51.020;6.764;2023-11-19T09:14:27;16.03;;;5.87;;
11837;SDS011;5978;51.020;6.764;2023-11-19T09:16:52;14.77;;;3.80;;
11837;SDS011;5978;51.020;6.764;2023-11-19T09:19:18;17.17;;;5.10;;
11837;SDS011;5978;51.020;6.764;2023-11-19T09:21:44;15.47;;;4.30;;
11837;SDS011;5978;51.020;6.764;2023-11-19T09:24:10;19.10;;;4.40;;
11837;SDS011;5978;51.020;6.764;2023-11-19T09:26:36;22.60;;;4.70;;
11837;SDS011;5978;51.020;6.764;2023-11-19T09:29:04;17.50;;;4.93;;
11837;SDS011;5978;51.020;6.764;2023-11-19T09:31:30;19.30;;;5.27;;
11837;SDS011;5978;51.020;6.764;2023-11-19T09:33:56;26.90;;;5.00;;
11837;SDS011;5978;51.020;6.764;2023-11-19T09:36:22;12.53;;;4.53;;
11837;SDS011;5978;51.020;6.764;2023-11-19T09:38:48;16.50;;;4.43;;
11837;SDS011;5978;51.020;6.764;2023-11-19T09:41:14;18.50;;;5.10;;
11837;SDS011;5978;51.020;6.764;2023-11-19T09:43:41;22.83;;;5.50;;
11837;SDS011;5978;51.020;6.764;2023-11-19T09:46:08;19.23;;;5.47;;
11837;SDS011;5978;51.020;6.764;2023-11-19T09:48:37;16.67;;;5.70;;
11837;SDS011;5978;51.020;6.764;2023-11-19T09:51:07;12.53;;;4.10;;
11837;SDS011;5978;51.020;6.764;2023-11-19T09:53:36;21.80;;;5.03;;
11837;SDS011;5978;51.020;6.764;2023-11-19T09:56:03;22.97;;;4.43;;
11837;SDS011;5978;51.020;6.764;2023-11-19T09:58:30;15.03;;;3.97;;
11837;SDS011;5978;51.020;6.764;2023-11-19T10:00:57;23.90;;;5.37;;
11837;SDS011;5978;51.020;6.764;2023-11-19T10:03:24;25.33;;;5.57;;
11837;SDS011;5978;51.020;6.764;2023-11-19T10:05:55;23.93;;;4.80;;
11837;SDS011;5978;51.020;6.764;2023-11-19T10:08:21;22.93;;;5.93;;
11837;SDS011;5978;51.020;6.764;2023-11-19T10:10:47;23.47;;;6.13;;
11837;SDS011;5978;51.020;6.764;2023-11-19T10:13:14;19.23;;;5.93;;
11837;SDS011;5978;51.020;6.764;2023-11-19T10:15:40;21.93;;;5.67;;
11837;SDS011;5978;51.020;6.764;2023-11-19T10:18:08;19.73;;;5.20;;
11837;SDS011;5978;51.020;6.764;2023-11-19T10:20:38;19.10;;;5.93;;
11837;SDS011;5978;51.020;6.764;2023-11-19T10:23:06;15.10;;;3.63;;
11837;SDS011;5978;51.020;6.764;2023-11-19T10:25:32;16.00;;;5.13;;
11837;SDS011;5978;51.020;6.764;2023-11-19T10:27:59;17.40;;;4.73;;
11837;SDS011;5978;51.020;6.764;2023-11-19T10:30:26;15.47;;;4.40;;
11837;SDS011;5978;51.020;6.764;2023-11-19T10:35:32;18.60;;;5.17;;
11837;SDS011;5978;51.020;6.764;2023-11-19T10:37:59;22.63;;;5.17;;
11837;SDS011;5978;51.020;6.764;2023-11-19T10:40:48;18.03;;;4.57;;
11837;SDS011;5978;51.020;6.764;2023-11-19T10:43:13;17.90;;;4.80;;
11837;SDS011;5978;51.020;6.764;2023-11-19T10:45:39;22.57;;;5.23;;
11837;SDS011;5978;51.020;6.764;2023-11-19T10:48:05;14.93;;;4.70;;
11837;SDS011;5978;51.020;6.764;2023-11-19T10:50:35;15.63;;;5.33;;
11837;SDS011;5978;51.020;6.764;2023-11-19T10:53:02;11.20;;;4.03;;
11837;SDS011;5978;51.020;6.764;2023-11-19T10:55:33;20.70;;;4.00;;
11837;SDS011;5978;51.020;6.764;2023-11-19T10:58:09;17.20;;;4.03;;
11837;SDS011;5978;51.020;6.764;2023-11-19T11:03:18;9.97;;;3.70;;
11837;SDS011;5978;51.020;6.764;2023-11-19T11:05:48;17.97;;;3.80;;
11837;SDS011;5978;51.020;6.764;2023-11-19T11:08:15;11.23;;;3.97;;
11837;SDS011;5978;51.020;6.764;2023-11-19T11:10:45;12.87;;;3.80;;
11837;SDS011;5978;51.020;6.764;2023-11-19T11:13:16;11.70;;;3.70;;
11837;SDS011;5978;51.020;6.764;2023-11-19T11:15:44;11.23;;;3.60;;
11837;SDS011;5978;51.020;6.764;2023-11-19T11:18:12;15.80;;;4.03;;
11837;SDS011;5978;51.020;6.764;2023-11-19T11:20:39;12.83;;;3.97;;
11837;SDS011;5978;51.020;6.764;2023-11-19T11:28:48;19.70;;;4.77;;
11837;SDS011;5978;51.020;6.764;2023-11-19T11:31:23;18.20;;;4.67;;
11837;SDS011;5978;51.020;6.764;2023-11-19T11:39:34;11.73;;;3.37;;
11837;SDS011;5978;51.020;6.764;2023-11-19T11:44:59;11.80;;;3.40;;
11837;SDS011;5978;51.020;6.764;2023-11-19T11:50:15;9.70;;;3.30;;
11837;SDS011;5978;51.020;6.764;2023-11-19T11:53:16;10.00;;;3.10;;
11837;SDS011;5978;51.020;6.764;2023-11-19T11:58:29;11.10;;;3.47;;
11837;SDS011;5978;51.020;6.764;2023-11-19T12:01:00;17.87;;;4.40;;
11837;SDS011;5978;51.020;6.764;2023-11-19T12:03:28;14.40;;;5.40;;
11837;SDS011;5978;51.020;6.764;2023-11-19T12:05:54;16.00;;;3.90;;
11837;SDS011;5978;51.020;6.764;2023-11-19T12:08:24;11.97;;;3.13;;
11837;SDS011;5978;51.020;6.764;2023-11-19T12:10:55;17.47;;;4.23;;
11837;SDS011;5978;51.020;6.764;2023-11-19T12:13:23;22.73;;;3.87;;
11837;SDS011;5978;51.020;6.764;2023-11-19T12:18:24;12.00;;;4.07;;
11837;SDS011;5978;51.020;6.764;2023-11-19T12:20:52;18.63;;;4.03;;
11837;SDS011;5978;51.020;6.764;2023-11-19T12:23:18;20.77;;;4.13;;
11837;SDS011;5978;51.020;6.764;2023-11-19T12:25:44;11.17;;;3.90;;
11837;SDS011;5978;51.020;6.764;2023-11-19T12:28:14;12.00;;;4.50;;
11837;SDS011;5978;51.020;6.764;2023-11-19T12:30:44;11.03;;;4.23;;
11837;SDS011;5978;51.020;6.764;2023-11-19T12:33:11;11.60;;;3.63;;
11837;SDS011;5978;51.020;6.764;2023-11-19T12:35:41;15.23;;;5.97;;
11837;SDS011;5978;51.020;6.764;2023-11-19T12:38:08;13.07;;;5.53;;
11837;SDS011;5978;51.020;6.764;2023-11-19T12:40:43;15.60;;;4.37;;
11837;SDS011;5978;51.020;6.764;2023-11-19T12:43:08;15.40;;;4.43;;
11837;SDS011;5978;51.020;6.764;2023-11-19T12:45:35;12.03;;;3.60;;
11837;SDS011;5978;51.020;6.764;2023-11-19T12:48:05;16.30;;;4.67;;
11837;SDS011;5978;51.020;6.764;2023-11-19T12:50:52;10.20;;;4.00;;
11837;SDS011;5978;51.020;6.764;2023-11-19T12:53:21;13.83;;;4.00;;
11837;SDS011;5978;51.020;6.764;2023-11-19T12:55:48;9.07;;;3.37;;
11837;SDS011;5978;51.020;6.764;2023-11-19T12:58:29;13.10;;;3.60;;
11837;SDS011;5978;51.020;6.764;2023-11-19T13:01:00;12.13;;;3.40;;
11837;SDS011;5978;51.020;6.764;2023-11-19T13:03:33;11.00;;;3.00;;
11837;SDS011;5978;51.020;6.764;2023-11-19T13:06:01;10.33;;;4.00;;
11837;SDS011;5978;51.020;6.764;2023-11-19T13:08:39;7.10;;;3.50;;
11837;SDS011;5978;51.020;6.764;2023-11-19T13:11:06;11.63;;;4.33;;
11837;SDS011;5978;51.020;6.764;2023-11-19T13:13:57;17.43;;;3.53;;
11837;SDS011;5978;51.020;6.764;2023-11-19T13:16:29;11.53;;;3.73;;
11837;SDS011;5978;51.020;6.764;2023-11-19T13:18:55;12.93;;;3.30;;
11837;SDS011;5978;51.020;6.764;2023-11-19T13:21:22;9.00;;;3.70;;
11837;SDS011;5978;51.020;6.764;2023-11-19T13:23:49;16.67;;;4.63;;
11837;SDS011;5978;51.020;6.764;2023-11-19T13:26:15;19.87;;;4.17;;
11837;SDS011;5978;51.020;6.764;2023-11-19T13:28:41;19.40;;;4.73;;
11837;SDS011;5978;51.020;6.764;2023-11-19T13:31:07;21.50;;;4.40;;
11837;SDS011;5978;51.020;6.764;2023-11-19T13:33:33;10.47;;;4.03;;
11837;SDS011;5978;51.020;6.764;2023-11-19T13:35:59;14.30;;;4.53;;
11837;SDS011;5978;51.020;6.764;2023-11-19T13:38:31;15.60;;;3.87;;
11837;SDS011;5978;51.020;6.764;2023-11-19T13:40:58;15.23;;;4.33;;
11837;SDS011;5978;51.020;6.764;2023-11-19T13:43:24;11.73;;;4.07;;
11837;SDS011;5978;51.020;6.764;2023-11-19T13:45:51;11.97;;;3.80;;
11837;SDS011;5978;51.020;6.764;2023-11-19T13:48:18;11.80;;;4.53;;
11837;SDS011;5978;51.020;6.764;2023-11-19T13:50:44;16.00;;;4.93;;
11837;SDS011;5978;51.020;6.764;2023-11-19T13:53:10;13.93;;;4.60;;
11837;SDS011;5978;51.020;6.764;2023-11-19T13:55:36;14.20;;;3.83;;
11837;SDS011;5978;51.020;6.764;2023-11-19T13:58:02;12.30;;;3.60;;
11837;SDS011;5978;51.020;6.764;2023-11-19T14:00:29;13.70;;;4.97;;
11837;SDS011;5978;51.020;6.764;2023-11-19T14:02:54;16.87;;;3.87;;
11837;SDS011;5978;51.020;6.764;2023-11-19T14:05:20;16.93;;;4.27;;
11837;SDS011;5978;51.020;6.764;2023-11-19T14:07:46;17.53;;;4.13;;
11837;SDS011;5978;51.020;6.764;2023-11-19T14:10:13;19.80;;;4.40;;
11837;SDS011;5978;51.020;6.764;2023-11-19T14:12:39;16.97;;;4.73;;
11837;SDS011;5978;51.020;6.764;2023-11-19T14:15:06;12.43;;;3.97;;
11837;SDS011;5978;51.020;6.764;2023-11-19T14:17:39;8.50;;;3.50;;
11837;SDS011;5978;51.020;6.764;2023-11-19T14:20:05;14.70;;;4.50;;
11837;SDS011;5978;51.020;6.764;2023-11-19T14:22:41;16.03;;;4.33;;
11837;SDS011;5978;51.020;6.764;2023-11-19T14:25:11;16.27;;;4.10;;
11837;SDS011;5978;51.020;6.764;2023-11-19T14:27:39;13.43;;;3.13;;
11837;SDS011;5978;51.020;6.764;2023-11-19T14:30:07;13.63;;;3.73;;
11837;SDS011;5978;51.020;6.764;2023-11-19T14:32:36;13.13;;;3.97;;
11837;SDS011;5978;51.020;6.764;2023-11-19T14:35:02;8.83;;;3.73;;
11837;SDS011;5978;51.020;6.764;2023-11-19T14:37:29;10.57;;;3.00;;
11837;SDS011;5978;51.020;6.764;2023-11-19T14:39:58;12.33;;;3.27;;
11837;SDS011;5978;51.020;6.764;2023-11-19T14:42:25;10.17;;;3.03;;
11837;SDS011;5978;51.020;6.764;2023-11-19T14:44:52;11.60;;;3.73;;
11837;SDS011;5978;51.020;6.764;2023-11-19T14:47:18;11.93;;;4.30;;
11837;SDS011;5978;51.020;6.764;2023-11-19T14:49:45;11.13;;;2.77;;
11837;SDS011;5978;51.020;6.764;2023-11-19T14:52:11;14.97;;;4.40;;
11837;SDS011;5978;51.020;6.764;2023-11-19T14:54:38;12.53;;;3.83;;
11837;SDS011;5978;51.020;6.764;2023-11-19T14:57:04;11.93;;;3.47;;
11837;SDS011;5978;51.020;6.764;2023-11-19T14:59:31;12.27;;;4.60;;
11837;SDS011;5978;51.020;6.764;2023-11-19T15:01:58;16.27;;;4.90;;
11837;SDS011;5978;51.020;6.764;2023-11-19T15:04:25;12.60;;;4.57;;
11837;SDS011;5978;51.020;6.764;2023-11-19T15:06:52;6.70;;;3.40;;
11837;SDS011;5978;51.020;6.764;2023-11-19T15:09:18;19.07;;;4.00;;
11837;SDS011;5978;51.020;6.764;2023-11-19T15:11:46;12.83;;;4.40;;
11837;SDS011;5978;51.020;6.764;2023-11-19T15:14:18;9.33;;;2.90;;
11837;SDS011;5978;51.020;6.764;2023-11-19T15:16:45;13.23;;;4.40;;
11837;SDS011;5978;51.020;6.764;2023-11-19T15:19:15;21.13;;;6.03;;